createdAt,value
2022-12-27T00:00:40.161Z,90469.31
2022-12-27T00:03:07.225Z,90459.19
2022-12-27T00:05:34.383Z,90467.06
2022-12-27T00:08:01.308Z,90472.66
2022-12-27T00:10:28.289Z,90472.66
2022-12-27T00:12:55.339Z,90471.56
2022-12-27T00:15:22.344Z,90474.91
2022-12-27T00:17:49.240Z,90475.34
2022-12-27T00:20:16.199Z,90469.31
2022-12-27T00:22:43.144Z,90477.16
2022-12-27T00:25:10.902Z,90479.47
2022-12-27T00:27:38.039Z,90486.59
2022-12-27T00:30:05.638Z,90479.03
2022-12-27T00:32:37.114Z,90476.31
2022-12-27T00:35:04.383Z,90470.28
2022-12-27T00:37:31.261Z,90479.28
2022-12-27T00:39:58.173Z,90475.44
2022-12-27T00:42:24.986Z,90475.81
2022-12-27T00:44:51.891Z,90474.25
2022-12-27T00:47:18.805Z,90472.03
2022-12-27T00:49:45.684Z,90472.00
2022-12-27T00:52:12.706Z,90472.78
2022-12-27T00:54:39.641Z,90476.47
2022-12-27T00:57:06.588Z,90464.84
2022-12-27T00:59:33.465Z,90463.06
2022-12-27T01:02:00.551Z,90468.31
2022-12-27T01:04:27.626Z,90461.25
2022-12-27T01:06:54.555Z,90470.25
2022-12-27T01:09:21.496Z,90462.00
2022-12-27T01:11:48.579Z,90452.97
2022-12-27T01:14:15.665Z,90456.38
2022-12-27T01:16:42.785Z,90446.34
2022-12-27T01:19:09.791Z,90455.84
2022-12-27T01:21:36.668Z,90456.72
2022-12-27T01:24:05.850Z,90443.25
2022-12-27T01:26:32.769Z,90458.88
2022-12-27T01:28:59.667Z,90452.63
2022-12-27T01:31:28.411Z,90447.44
2022-12-27T01:34:00.200Z,90446.28
2022-12-27T01:36:29.605Z,90441.06
2022-12-27T01:38:56.743Z,90435.78
2022-12-27T01:41:29.935Z,90439.88
2022-12-27T01:43:56.741Z,90432.72
2022-12-27T01:46:23.692Z,90434.25
2022-12-27T01:48:50.986Z,90430.44
2022-12-27T01:51:19.278Z,90429.28
2022-12-27T01:53:50.139Z,90434.47
2022-12-27T01:56:27.057Z,90435.97
2022-12-27T01:59:05.485Z,90444.50
2022-12-27T02:01:43.303Z,90444.47
2022-12-27T02:04:15.363Z,90430.25
2022-12-27T02:06:42.904Z,90434.72
2022-12-27T02:09:16.795Z,90435.13
2022-12-27T02:11:47.996Z,90433.25
2022-12-27T02:14:26.090Z,90429.84
2022-12-27T02:16:57.523Z,90427.59
2022-12-27T02:19:42.431Z,90425.72
2022-12-27T02:22:49.246Z,90423.47
2022-12-27T02:25:34.652Z,90415.97
2022-12-27T02:28:36.421Z,90420.44
2022-12-27T02:31:38.059Z,90424.56
2022-12-27T02:34:11.069Z,90423.63
2022-12-27T02:36:41.237Z,90424.34
2022-12-27T02:39:11.191Z,90421.28
2022-12-27T02:41:38.518Z,90422.03
2022-12-27T02:44:05.392Z,90425.84
2022-12-27T02:46:32.680Z,90429.91
2022-12-27T02:48:59.649Z,90421.69
2022-12-27T02:51:38.975Z,90428.16
2022-12-27T02:54:18.740Z,90431.84
2022-12-27T02:57:23.820Z,90421.28
2022-12-27T03:00:11.898Z,90427.97
2022-12-27T03:03:07.360Z,90427.22
2022-12-27T03:05:43.276Z,90429.50
2022-12-27T03:08:33.826Z,90434.66
2022-12-27T03:11:02.622Z,90432.47
2022-12-27T03:13:47.497Z,90435.69
2022-12-27T03:16:14.310Z,90439.88
2022-12-27T03:19:05.586Z,90439.13
2022-12-27T03:21:40.392Z,90427.53
2022-12-27T03:24:11.357Z,90448.41
2022-12-27T03:26:42.616Z,90434.56
2022-12-27T03:29:10.768Z,90439.06
2022-12-27T03:31:41.624Z,90438.28
2022-12-27T03:34:12.753Z,90440.91
2022-12-27T03:36:39.793Z,90443.88
2022-12-27T03:39:17.138Z,90439.69
2022-12-27T03:41:58.739Z,90450.53
2022-12-27T03:44:26.950Z,90441.66
2022-12-27T03:47:18.619Z,90440.69
2022-12-27T03:50:28.613Z,90442.22
2022-12-27T03:53:02.583Z,90444.78
2022-12-27T03:55:33.340Z,90447.41
2022-12-27T03:58:00.861Z,90442.94
2022-12-27T04:00:27.750Z,90450.81
2022-12-27T04:02:55.481Z,90450.44
2022-12-27T04:05:22.402Z,90438.44
2022-12-27T04:07:49.290Z,90439.56
2022-12-27T04:10:16.147Z,90438.03
2022-12-27T04:12:43.185Z,90441.00
2022-12-27T04:15:10.753Z,90432.81
2022-12-27T04:17:38.359Z,90439.50
2022-12-27T04:20:05.763Z,90439.50
2022-12-27T04:22:32.711Z,90444.72
2022-12-27T04:24:59.681Z,90445.44
2022-12-27T04:27:26.597Z,90444.69
2022-12-27T04:29:53.571Z,90443.94
2022-12-27T04:32:20.471Z,90443.19
2022-12-27T04:34:47.370Z,90446.88
2022-12-27T04:37:17.850Z,90446.91
2022-12-27T04:39:46.312Z,90442.53
2022-12-27T04:42:13.228Z,90439.47
2022-12-27T04:44:40.345Z,90444.69
2022-12-27T04:47:19.234Z,90446.94
2022-12-27T04:49:46.308Z,90449.94
2022-12-27T04:52:18.591Z,90460.00
2022-12-27T04:54:45.589Z,90448.44
2022-12-27T04:57:12.563Z,90444.38
2022-12-27T04:59:39.489Z,90447.34
2022-12-27T05:02:06.643Z,90448.47
2022-12-27T05:04:37.007Z,90449.53
2022-12-27T05:07:06.791Z,90454.47
2022-12-27T05:09:33.650Z,90457.50
2022-12-27T05:12:00.714Z,90455.63
2022-12-27T05:14:27.757Z,90451.53
2022-12-27T05:16:54.865Z,90447.78
2022-12-27T05:19:21.821Z,90454.13
2022-12-27T05:21:48.679Z,90455.59
2022-12-27T05:24:15.452Z,90458.16
2022-12-27T05:26:42.489Z,90459.84
2022-12-27T05:29:09.441Z,90457.28
2022-12-27T05:31:36.551Z,90454.66
2022-12-27T05:34:04.748Z,90463.34
2022-12-27T05:36:31.745Z,90465.19
2022-12-27T05:38:59.880Z,90457.66
2022-12-27T05:41:26.740Z,90465.72
2022-12-27T05:43:53.727Z,90462.25
2022-12-27T05:46:22.152Z,90457.81
2022-12-27T05:48:49.360Z,90464.88
2022-12-27T05:51:21.268Z,90475.00
2022-12-27T05:53:48.889Z,90468.63
2022-12-27T05:56:18.346Z,90469.63
2022-12-27T05:58:45.363Z,90465.97
2022-12-27T06:01:14.929Z,90478.34
2022-12-27T06:03:42.450Z,90475.72
2022-12-27T06:06:09.882Z,90470.03
2022-12-27T06:08:38.092Z,90479.31
2022-12-27T06:11:11.347Z,90475.09
2022-12-27T06:13:39.931Z,90482.97
2022-12-27T06:16:08.691Z,90478.41
2022-12-27T06:18:37.553Z,90476.97
2022-12-27T06:21:07.206Z,90480.88
2022-12-27T06:23:39.598Z,90484.81
2022-12-27T06:26:13.740Z,90477.78
2022-12-27T06:28:40.881Z,90480.38
2022-12-27T06:31:07.704Z,90482.94
2022-12-27T06:33:34.749Z,90487.06
2022-12-27T06:36:13.474Z,90487.31
2022-12-27T06:38:41.035Z,90481.56
2022-12-27T06:41:10.409Z,90475.41
2022-12-27T06:43:37.646Z,90482.44
2022-12-27T06:46:07.118Z,90483.44
2022-12-27T06:48:34.483Z,90480.50
2022-12-27T06:51:04.701Z,90484.16
2022-12-27T06:53:31.623Z,90487.97
2022-12-27T06:55:58.580Z,90483.66
2022-12-27T06:58:25.537Z,90488.31
2022-12-27T07:00:52.545Z,90483.81
2022-12-27T07:03:19.417Z,90484.88
2022-12-27T07:05:46.457Z,90482.69
2022-12-27T07:08:13.423Z,90487.84
2022-12-27T07:10:40.340Z,90492.25
2022-12-27T07:13:07.200Z,90493.28
2022-12-27T07:15:34.164Z,90499.47
2022-12-27T07:18:01.053Z,90488.06
2022-12-27T07:20:27.922Z,90495.94
2022-12-27T07:22:54.859Z,90494.41
2022-12-27T07:25:21.727Z,90488.38
2022-12-27T07:27:48.701Z,90488.69
2022-12-27T07:30:15.563Z,90501.06
2022-12-27T07:32:42.458Z,90497.41
2022-12-27T07:35:09.497Z,90497.09
2022-12-27T07:37:36.398Z,90496.28
2022-12-27T07:40:03.356Z,90499.81
2022-12-27T07:42:30.236Z,90506.84
2022-12-27T07:44:57.081Z,90496.34
2022-12-27T07:47:24.012Z,90491.63
2022-12-27T07:49:50.965Z,90497.38
2022-12-27T07:52:17.910Z,90510.63
2022-12-27T07:54:44.815Z,90515.72
2022-12-27T07:57:11.719Z,90518.06
2022-12-27T07:59:38.647Z,90511.72
2022-12-27T08:02:05.808Z,90509.66
2022-12-27T08:04:35.595Z,90521.16
2022-12-27T08:07:14.833Z,90513.59
2022-12-27T08:09:43.559Z,90512.97
2022-12-27T08:12:11.003Z,90506.47
2022-12-27T08:14:37.951Z,90506.44
2022-12-27T08:17:11.831Z,90501.97
2022-12-27T08:19:38.792Z,90495.66
2022-12-27T08:22:05.727Z,90489.72
2022-12-27T08:24:32.686Z,90485.88
2022-12-27T08:26:59.617Z,90487.59
2022-12-27T08:29:26.378Z,90486.66
2022-12-27T08:31:53.314Z,90477.94
2022-12-27T08:34:20.344Z,90474.44
2022-12-27T08:36:55.817Z,90480.28
2022-12-27T08:39:23.521Z,90480.44
2022-12-27T08:41:52.948Z,90466.84
2022-12-27T08:44:19.976Z,90467.53
2022-12-27T08:46:46.958Z,90457.94
2022-12-27T08:49:13.906Z,90452.69
2022-12-27T08:51:41.690Z,90458.09
2022-12-27T08:54:09.247Z,90456.44
2022-12-27T08:56:36.510Z,90455.69
2022-12-27T08:59:03.647Z,90455.84
2022-12-27T09:01:30.695Z,90444.13
2022-12-27T09:03:57.632Z,90441.25
2022-12-27T09:06:25.348Z,90440.34
2022-12-27T09:08:52.714Z,90444.84
2022-12-27T09:11:31.585Z,90437.38
2022-12-27T09:14:00.558Z,90435.44
2022-12-27T09:16:28.304Z,90428.28
2022-12-27T09:18:57.371Z,90423.09
2022-12-27T09:21:26.011Z,90421.94
2022-12-27T09:23:53.461Z,90415.13
2022-12-27T09:26:24.117Z,90412.69
2022-12-27T09:28:51.629Z,90402.75
2022-12-27T09:31:19.863Z,90396.97
2022-12-27T09:33:47.051Z,90394.47
2022-12-27T09:36:16.560Z,90391.31
2022-12-27T09:38:44.924Z,90396.56
2022-12-27T09:42:44.445Z,90389.59
2022-12-27T09:44:41.100Z,90392.22
2022-12-27T09:47:45.718Z,90387.78
2022-12-27T09:50:19.133Z,90376.16
2022-12-27T09:53:07.651Z,90376.59
2022-12-27T09:55:34.520Z,90364.78
2022-12-27T09:58:30.650Z,90367.72
2022-12-27T10:00:57.625Z,90357.03
2022-12-27T10:03:26.798Z,90353.47
2022-12-27T10:06:03.628Z,90351.75
2022-12-27T10:08:43.721Z,90354.38
2022-12-27T10:11:33.500Z,90349.44
2022-12-27T10:14:16.033Z,90349.84
2022-12-27T10:16:54.124Z,90344.84
2022-12-27T10:19:30.021Z,90344.25
2022-12-27T10:22:14.369Z,90340.19
2022-12-27T10:24:51.625Z,90343.50
2022-12-27T10:27:23.726Z,90346.38
2022-12-27T10:29:55.517Z,90334.63
2022-12-27T10:32:22.502Z,90331.31
2022-12-27T10:34:56.894Z,90336.09
2022-12-27T10:37:23.849Z,90333.44
2022-12-27T10:39:50.755Z,90331.56
2022-12-27T10:42:33.781Z,90326.69
2022-12-27T10:45:39.409Z,90327.69
2022-12-27T10:48:21.840Z,90330.72
2022-12-27T10:51:10.797Z,90332.75
2022-12-27T10:53:40.439Z,90326.97
2022-12-27T10:56:31.108Z,90323.63
2022-12-27T10:59:18.920Z,90326.28
2022-12-27T11:01:48.207Z,90320.47
2022-12-27T11:04:21.160Z,90316.25
2022-12-27T11:07:12.626Z,90319.00
2022-12-27T11:09:46.432Z,90325.44
2022-12-27T11:12:27.493Z,90323.16
2022-12-27T11:14:57.684Z,90311.66
2022-12-27T11:17:44.419Z,90315.88
2022-12-27T11:20:31.573Z,90313.59
2022-12-27T11:23:02.714Z,90308.16
2022-12-27T11:25:30.412Z,90305.56
2022-12-27T11:28:05.693Z,90311.94
2022-12-27T11:30:40.592Z,90306.13
2022-12-27T11:33:24.677Z,90306.88
2022-12-27T11:35:54.483Z,90299.34
2022-12-27T11:38:28.502Z,90299.97
2022-12-27T11:41:02.918Z,90295.16
2022-12-27T11:43:36.831Z,90290.78
2022-12-27T11:46:14.141Z,90295.16
2022-12-27T11:48:45.219Z,90290.63
2022-12-27T11:51:12.111Z,90288.56
2022-12-27T11:53:38.828Z,90285.94
2022-12-27T11:56:28.228Z,90286.34
2022-12-27T11:59:24.054Z,90292.84
2022-12-27T12:02:30.942Z,90286.84
2022-12-27T12:04:57.851Z,90288.28
2022-12-27T12:07:42.815Z,90286.31
2022-12-27T12:10:15.486Z,90288.25
2022-12-27T12:13:03.834Z,90290.91
2022-12-27T12:15:54.444Z,90298.09
2022-12-27T12:18:32.818Z,90290.75
2022-12-27T12:21:11.503Z,90290.28
2022-12-27T12:23:53.275Z,90288.53
2022-12-27T12:26:26.029Z,90291.66
2022-12-27T12:29:11.024Z,90290.50
2022-12-27T12:32:03.343Z,90288.38
2022-12-27T12:35:00.159Z,90296.03
2022-12-27T12:37:41.838Z,90291.31
2022-12-27T12:40:27.220Z,90285.72
2022-12-27T12:43:15.850Z,90276.41
2022-12-27T12:45:57.788Z,90274.38
2022-12-27T12:49:02.262Z,90273.13
2022-12-27T12:51:56.858Z,90281.97
2022-12-27T12:54:53.899Z,90277.13
2022-12-27T12:57:42.055Z,90278.22
2022-12-27T13:00:11.652Z,90279.53
2022-12-27T13:02:41.678Z,90279.41
2022-12-27T13:05:48.359Z,90277.72
2022-12-27T13:08:15.293Z,90270.94
2022-12-27T13:11:33.191Z,90280.31
2022-12-27T13:14:35.217Z,90277.13
2022-12-27T13:17:10.552Z,90283.03
2022-12-27T13:20:20.707Z,90274.16
2022-12-27T13:23:05.763Z,90270.41
2022-12-27T13:25:59.663Z,90267.09
2022-12-27T13:28:54.265Z,90259.59
2022-12-27T13:31:30.248Z,90265.63
2022-12-27T13:34:15.880Z,90264.59
2022-12-27T13:37:09.962Z,90263.69
2022-12-27T13:40:01.521Z,90267.59
2022-12-27T13:42:59.074Z,90255.47
2022-12-27T13:45:44.494Z,90260.00
2022-12-27T13:49:08.543Z,90265.38
2022-12-27T13:51:51.581Z,90255.50
2022-12-27T13:54:27.304Z,90254.69
2022-12-27T13:57:03.427Z,90259.28
2022-12-27T13:59:54.385Z,90248.59
2022-12-27T14:03:02.661Z,90239.53
2022-12-27T14:05:41.728Z,90249.91
2022-12-27T14:08:36.117Z,90244.41
2022-12-27T14:11:03.735Z,90248.69
2022-12-27T14:13:36.643Z,90245.41
2022-12-27T14:16:06.654Z,90245.31
2022-12-27T14:18:47.135Z,90247.94
2022-12-27T14:21:43.262Z,90238.81
2022-12-27T14:24:47.098Z,90235.19
2022-12-27T14:27:32.981Z,90238.16
2022-12-27T14:30:02.846Z,90233.50
2022-12-27T14:33:06.732Z,90240.94
2022-12-27T14:35:52.330Z,90235.88
2022-12-27T14:39:10.940Z,90244.31
2022-12-27T14:42:10.941Z,90240.25
2022-12-27T14:45:25.112Z,90251.38
2022-12-27T14:48:39.778Z,90244.09
2022-12-27T14:52:00.891Z,90239.16
2022-12-27T14:54:52.416Z,90250.03
2022-12-27T14:57:42.791Z,90250.22
2022-12-27T15:00:22.232Z,90244.94
2022-12-27T15:03:07.693Z,90241.34
2022-12-27T15:06:15.534Z,90238.31
2022-12-27T15:08:53.725Z,90235.97
2022-12-27T15:11:40.339Z,90237.94
2022-12-27T15:14:25.576Z,90238.66
2022-12-27T15:17:10.451Z,90245.63
2022-12-27T15:19:46.121Z,90249.53
2022-12-27T15:22:28.315Z,90251.75
2022-12-27T15:25:18.488Z,90250.91
2022-12-27T15:28:16.326Z,90243.25
2022-12-27T15:31:01.622Z,90246.13
2022-12-27T15:33:37.570Z,90240.00
2022-12-27T15:36:13.519Z,90237.03
2022-12-27T15:38:53.923Z,90231.88
2022-12-27T15:41:30.116Z,90237.91
2022-12-27T15:44:17.731Z,90233.00
2022-12-27T15:47:20.835Z,90234.66
2022-12-27T15:50:06.768Z,90239.22
2022-12-27T15:52:56.911Z,90238.22
2022-12-27T15:55:49.498Z,90240.03
2022-12-27T15:58:21.355Z,90244.72
2022-12-27T16:01:23.640Z,90244.47
2022-12-27T16:03:53.682Z,90249.06
2022-12-27T16:06:35.958Z,90240.81
2022-12-27T16:09:21.245Z,90253.94
2022-12-27T16:12:31.310Z,90261.66
2022-12-27T16:15:36.638Z,90252.78
2022-12-27T16:18:04.466Z,90252.28
2022-12-27T16:20:32.768Z,90257.22
2022-12-27T16:23:06.511Z,90253.75
2022-12-27T16:25:34.743Z,90250.19
2022-12-27T16:28:16.662Z,90255.78
2022-12-27T16:30:46.453Z,90254.19
2022-12-27T16:33:28.149Z,90256.25
2022-12-27T16:36:20.077Z,90252.09
2022-12-27T16:38:57.916Z,90253.47
2022-12-27T16:41:27.871Z,90247.25
2022-12-27T16:44:00.988Z,90249.41
2022-12-27T16:47:09.046Z,90255.94
2022-12-27T16:49:54.429Z,90254.59
2022-12-27T16:52:41.168Z,90258.22
2022-12-27T16:55:29.734Z,90258.44
2022-12-27T16:58:19.340Z,90250.84
2022-12-27T17:00:48.664Z,90254.06
2022-12-27T17:03:21.013Z,90264.31
2022-12-27T17:06:29.943Z,90254.34
2022-12-27T17:08:39.367Z,90257.50
2022-12-27T17:11:30.073Z,90256.69
2022-12-27T17:14:18.664Z,90251.97
2022-12-27T17:16:52.016Z,90256.06
2022-12-27T17:19:36.549Z,90252.88
2022-12-27T17:22:06.112Z,90254.78
2022-12-27T17:24:33.490Z,90253.34
2022-12-27T17:27:06.551Z,90252.44
2022-12-27T17:29:33.471Z,90256.38
2022-12-27T17:32:13.000Z,90252.84
2022-12-27T17:34:52.242Z,90256.16
2022-12-27T17:37:37.570Z,90247.53
2022-12-27T17:40:28.861Z,90253.06
2022-12-27T17:43:17.297Z,90253.88
2022-12-27T17:45:53.528Z,90258.38
2022-12-27T17:48:31.073Z,90255.47
2022-12-27T17:51:21.281Z,90258.72
2022-12-27T17:53:50.789Z,90269.06
2022-12-27T17:56:21.380Z,90276.34
2022-12-27T17:58:48.396Z,90264.25
2022-12-27T18:01:15.596Z,90273.53
2022-12-27T18:03:47.184Z,90274.00
2022-12-27T18:06:19.682Z,90280.63
2022-12-27T18:08:49.239Z,90276.44
2022-12-27T18:11:16.500Z,90274.88
2022-12-27T18:13:50.572Z,90277.81
2022-12-27T18:16:23.033Z,90286.28
2022-12-27T18:18:52.893Z,90282.78
2022-12-27T18:21:25.436Z,90273.66
2022-12-27T18:23:53.062Z,90272.31
2022-12-27T18:26:30.491Z,90259.44
2022-12-27T18:28:57.447Z,90265.94
2022-12-27T18:31:27.267Z,90260.59
2022-12-27T18:33:58.020Z,90266.22
2022-12-27T18:36:43.849Z,90264.25
2022-12-27T18:39:38.675Z,90267.09
2022-12-27T18:42:36.900Z,90254.13
2022-12-27T18:45:07.723Z,90269.78
2022-12-27T18:47:44.838Z,90271.69
2022-12-27T18:50:27.864Z,90265.13
2022-12-27T18:53:24.570Z,90269.59
2022-12-27T18:56:16.287Z,90274.94
2022-12-27T18:59:03.095Z,90279.97
2022-12-27T19:01:36.889Z,90284.31
2022-12-27T19:04:16.062Z,90289.22
2022-12-27T19:06:51.314Z,90296.97
2022-12-27T19:09:20.170Z,90293.66
2022-12-27T19:11:53.198Z,90283.22
2022-12-27T19:14:21.746Z,90273.53
2022-12-27T19:16:53.012Z,90280.75
2022-12-27T19:19:30.556Z,90277.41
2022-12-27T19:21:58.527Z,90272.84
2022-12-27T19:24:25.303Z,90275.16
2022-12-27T19:26:53.135Z,90282.44
2022-12-27T19:29:28.860Z,90282.75
2022-12-27T19:32:01.750Z,90281.78
2022-12-27T19:34:35.121Z,90284.88
2022-12-27T19:37:02.224Z,90294.13
2022-12-27T19:39:33.393Z,90298.91
2022-12-27T19:42:04.231Z,90295.97
2022-12-27T19:44:32.045Z,90295.63
2022-12-27T19:46:58.972Z,90288.91
2022-12-27T19:49:43.013Z,90298.06
2022-12-27T19:52:23.046Z,90299.50
2022-12-27T19:54:52.951Z,90310.66
2022-12-27T19:57:19.908Z,90305.66
2022-12-27T19:59:46.826Z,90301.78
2022-12-27T20:02:14.023Z,90302.16
2022-12-27T20:04:41.266Z,90303.50
2022-12-27T20:07:16.102Z,90292.41
2022-12-27T20:09:42.990Z,90289.31
2022-12-27T20:12:10.164Z,90292.88
2022-12-27T20:14:37.161Z,90291.97
2022-12-27T20:17:04.304Z,90290.56
2022-12-27T20:19:31.392Z,90289.44
2022-12-27T20:21:58.447Z,90290.13
2022-12-27T20:24:25.485Z,90285.63
2022-12-27T20:26:52.407Z,90295.34
2022-12-27T20:29:19.260Z,90296.50
2022-12-27T20:31:46.271Z,90296.75
2022-12-27T20:34:13.475Z,90301.56
2022-12-27T20:36:40.435Z,90295.16
2022-12-27T20:39:07.562Z,90288.84
2022-12-27T20:41:37.385Z,90287.47
2022-12-27T20:44:06.917Z,90291.38
2022-12-27T20:46:33.922Z,90284.22
2022-12-27T20:49:01.179Z,90286.19
2022-12-27T20:51:31.624Z,90294.47
2022-12-27T20:54:00.532Z,90295.88
2022-12-27T20:56:27.685Z,90295.28
2022-12-27T20:58:55.139Z,90294.06
2022-12-27T21:01:25.284Z,90295.97
2022-12-27T21:03:53.558Z,90302.66
2022-12-27T21:06:31.138Z,90295.50
2022-12-27T21:09:00.656Z,90287.94
2022-12-27T21:11:33.504Z,90295.03
2022-12-27T21:14:12.661Z,90298.72
2022-12-27T21:16:39.686Z,90289.81
2022-12-27T21:19:17.817Z,90278.41
2022-12-27T21:21:44.664Z,90279.75
2022-12-27T21:24:23.991Z,90274.06
2022-12-27T21:26:56.179Z,90259.91
2022-12-27T21:29:31.424Z,90245.19
2022-12-27T21:35:20.246Z,90281.19
2022-12-27T21:37:48.611Z,90252.78
2022-12-27T21:40:15.594Z,90255.38
2022-12-27T21:42:42.512Z,90253.34
2022-12-27T21:45:10.396Z,90260.81
2022-12-27T21:47:37.267Z,90261.78
2022-12-27T21:50:04.388Z,90269.50
2022-12-27T21:52:35.783Z,90271.94
2022-12-27T21:55:12.368Z,90289.44
2022-12-27T21:57:39.322Z,90298.50
2022-12-27T22:00:06.800Z,90292.00
2022-12-27T22:02:33.852Z,90297.56
2022-12-27T22:05:03.945Z,90294.13
2022-12-27T22:07:32.850Z,90291.13
2022-12-27T22:09:59.991Z,90291.56
2022-12-27T22:15:08.026Z,90296.63
2022-12-27T22:17:35.045Z,90290.16
2022-12-27T22:20:02.130Z,90285.97
2022-12-27T22:22:29.042Z,90274.88
2022-12-27T22:24:55.890Z,90283.78
2022-12-27T22:27:22.797Z,90277.78
2022-12-27T22:29:49.857Z,90277.66
2022-12-27T22:32:16.840Z,90271.94
2022-12-27T22:34:43.777Z,90264.38
2022-12-27T22:37:10.891Z,90267.75
2022-12-27T22:39:37.761Z,90267.00
2022-12-27T22:42:04.773Z,90264.88
2022-12-27T22:44:31.692Z,90274.69
2022-12-27T22:47:25.194Z,90265.94
2022-12-27T22:49:45.586Z,90271.56
2022-12-27T22:52:12.574Z,90273.31
2022-12-27T22:55:05.484Z,90274.25
2022-12-27T22:57:26.634Z,90257.09
2022-12-27T22:59:53.553Z,90251.44
2022-12-27T23:02:20.714Z,90266.59
2022-12-27T23:04:47.781Z,90251.91
2022-12-27T23:07:14.804Z,90245.31
2022-12-27T23:09:43.647Z,90258.25
2022-12-27T23:12:11.326Z,90273.22
2022-12-27T23:14:38.284Z,90270.00
2022-12-27T23:17:05.234Z,90271.78
2022-12-27T23:19:32.201Z,90270.84
2022-12-27T23:21:59.147Z,90266.16
2022-12-27T23:24:26.209Z,90265.41
2022-12-27T23:26:53.142Z,90276.75
2022-12-27T23:29:20.073Z,90287.28
2022-12-27T23:31:54.380Z,90283.91
2022-12-27T23:34:27.301Z,90292.53
2022-12-27T23:36:55.329Z,90304.78
2022-12-27T23:39:22.227Z,90303.91
2022-12-27T23:41:49.155Z,90296.13
2022-12-27T23:44:19.743Z,90295.09
2022-12-27T23:46:59.835Z,90312.72
2022-12-27T23:49:26.624Z,90304.81
2022-12-27T23:51:53.550Z,90299.50
2022-12-27T23:54:20.443Z,90288.53
2022-12-27T23:56:47.550Z,90291.25
2022-12-27T23:59:14.468Z,90301.75
